Time;durP1;ratioP1;P1;durP2;ratioP2;P2;SDS_P1;SDS_P2;PMS_P1;PMS_P2;Temp;Humidity;BMP_temperature;BMP_pressure;BME280_temperature;BME280_humidity;BME280_pressure;Samples;Min_cycle;Max_cycle;Signal;HPM_P1;HPM_P2
2021/08/02 00:01:30;;;;;;;29.25;18.42;;;;;;;22.55;73.21;94758.59;5047050;28;20048;-68
2021/08/02 00:04:01;;;;;;;32.45;18.48;;;;;;;22.60;72.85;94755.81;5047128;28;20545;-67
2021/08/02 00:06:35;;;;;;;32.53;17.58;;;;;;;22.60;73.03;94744.38;5062391;28;20049;-67
2021/08/02 00:09:06;;;;;;;29.30;18.52;;;;;;;22.57;73.18;94750.34;5046963;28;20052;-68
2021/08/02 00:11:37;;;;;;;24.45;17.65;;;;;;;22.55;74.30;94747.97;5045817;28;20041;-67
2021/08/02 00:14:06;;;;;;;26.98;18.98;;;;;;;22.46;73.77;94733.91;5046750;28;20043;-67
2021/08/02 00:16:36;;;;;;;26.05;17.40;;;;;;;22.53;74.55;94739.56;5046906;28;20040;-67
2021/08/02 00:19:05;;;;;;;29.35;18.35;;;;;;;22.53;75.36;94742.19;5046677;28;20029;-67
2021/08/02 00:21:32;;;;;;;28.83;18.25;;;;;;;22.36;76.57;94742.16;5045193;28;20041;-68
2021/08/02 00:24:00;;;;;;;26.90;18.58;;;;;;;22.27;77.28;94742.13;5046887;28;20493;-68
2021/08/02 00:26:27;;;;;;;31.95;19.60;;;;;;;22.23;77.18;94752.53;5046467;28;20159;-67
2021/08/02 00:28:57;;;;;;;30.10;18.70;;;;;;;22.16;77.42;94746.88;5046334;28;20036;-68
2021/08/02 00:31:25;;;;;;;25.60;19.25;;;;;;;22.11;77.50;94754.97;5045661;28;20040;-68
2021/08/02 00:33:52;;;;;;;25.70;18.90;;;;;;;22.06;77.40;94752.47;5046576;28;20422;-68
2021/08/02 00:36:40;;;;;;;34.65;20.00;;;;;;;22.06;77.50;94752.47;5046564;28;20039;-68
2021/08/02 00:39:15;;;;;;;38.08;19.63;;;;;;;22.04;77.48;94749.31;5046158;28;20052;-68
2021/08/02 00:41:57;;;;;;;38.08;19.95;;;;;;;22.03;77.53;94747.78;5062003;28;20611;-68
2021/08/02 00:44:46;;;;;;;31.10;18.90;;;;;;;21.90;79.82;94749.44;5061769;28;20147;-68
2021/08/02 00:47:23;;;;;;;34.22;20.27;;;;;;;21.70;80.67;94750.72;5046255;28;20456;-67
2021/08/02 00:50:13;;;;;;;36.17;19.40;;;;;;;21.71;80.01;94746.97;5043763;28;20040;-68
2021/08/02 00:52:49;;;;;;;35.13;18.50;;;;;;;21.37;84.17;94727.09;5046266;28;20048;-68
2021/08/02 00:55:19;;;;;;;36.60;18.83;;;;;;;21.36;83.37;94741.44;5044835;28;20523;-68
2021/08/02 00:57:48;;;;;;;22.65;18.00;;;;;;;21.41;82.13;94733.38;5045288;28;20083;-68
2021/08/02 01:00:18;;;;;;;26.90;18.23;;;;;;;21.36;82.26;94712.28;5044587;28;20045;-67
2021/08/02 01:02:54;;;;;;;31.10;18.67;;;;;;;21.24;83.74;94706.75;5045837;28;20067;-68
2021/08/02 01:05:23;;;;;;;24.75;17.77;;;;;;;21.18;83.32;94714.03;5045535;28;20037;-68
2021/08/02 01:07:59;;;;;;;22.70;17.70;;;;;;;21.13;82.94;94711.50;5045928;28;20048;-68
2021/08/02 01:10:34;;;;;;;27.13;19.20;;;;;;;21.20;82.67;94701.28;5044848;28;20040;-67
2021/08/02 01:13:11;;;;;;;38.45;17.60;;;;;;;21.20;82.86;94699.41;5045715;28;20514;-68
2021/08/02 01:15:39;;;;;;;;;;;;;;;21.23;82.55;94705.19;5046155;28;20119;-68
2021/08/02 01:18:10;;;;;;;25.90;15.95;;;;;;;21.26;81.86;94696.63;5045658;28;19967;-68
2021/08/02 01:20:47;;;;;;;23.80;16.73;;;;;;;21.37;80.91;94695.31;5044108;28;20044;-68
2021/08/02 01:23:14;;;;;;;;;;;;;;;21.39;81.63;94698.44;5044961;28;20049;-67
2021/08/02 01:25:40;;;;;;;32.80;16.83;;;;;;;21.38;80.54;94696.88;5044980;28;19925;-67
2021/08/02 01:28:15;;;;;;;28.10;16.55;;;;;;;21.23;81.73;94689.28;5045405;28;20033;-67
2021/08/02 01:30:56;;;;;;;37.80;16.27;;;;;;;21.28;80.94;94689.16;5060968;28;20049;-68
2021/08/02 01:33:33;;;;;;;30.83;17.88;;;;;;;21.24;80.36;94685.56;5044459;28;20502;-68
2021/08/02 01:36:13;;;;;;;21.88;15.23;;;;;;;21.27;80.41;94684.97;5044129;28;20069;-68
2021/08/02 01:38:45;;;;;;;27.77;16.10;;;;;;;21.28;79.77;94681.22;5060599;28;20107;-68
2021/08/02 01:41:16;;;;;;;27.92;16.00;;;;;;;21.25;80.08;94665.94;5046463;28;20540;-68
2021/08/02 01:43:44;;;;;;;24.75;15.98;;;;;;;21.20;79.58;94674.78;5044122;28;20068;-68
2021/08/02 01:46:36;;;;;;;26.10;15.88;;;;;;;21.24;79.11;94667.81;5062053;28;20052;-68
2021/08/02 01:49:08;;;;;;;31.20;18.23;;;;;;;21.26;79.09;94667.50;5060716;28;20043;-68
2021/08/02 01:51:51;;;;;;;24.42;16.40;;;;;;;21.19;79.32;94647.53;5060685;28;20052;-68
2021/08/02 01:54:33;;;;;;;34.30;17.42;;;;;;;21.24;79.72;94653.78;5044559;28;20048;-68
2021/08/02 01:57:10;;;;;;;25.20;16.40;;;;;;;21.16;80.15;94658.72;5043342;28;20045;-68
2021/08/02 02:00:21;;;;;;;21.50;15.95;;;;;;;21.07;79.54;94642.00;5058788;28;20049;-68
2021/08/02 02:03:12;;;;;;;24.40;14.68;;;;;;;21.03;79.33;94633.09;5060820;28;20529;-68
2021/08/02 02:05:56;;;;;;;29.23;15.57;;;;;;;21.01;79.82;94629.94;5046139;28;20061;-68
2021/08/02 02:08:32;;;;;;;27.83;15.02;;;;;;;20.92;79.78;94626.47;5045241;28;20120;-68
2021/08/02 02:11:04;;;;;;;35.50;16.77;;;;;;;20.92;79.74;94637.06;5046401;28;20049;-68
2021/08/02 02:13:51;;;;;;;34.35;14.90;;;;;;;20.82;79.19;94632.78;5061442;28;20584;-69
2021/08/02 02:16:20;;;;;;;22.80;15.15;;;;;;;20.74;79.01;94631.66;5043749;28;20053;-68
2021/08/02 02:18:53;;;;;;;24.67;14.13;;;;;;;20.74;78.87;94642.25;5061490;28;20529;-68
2021/08/02 02:21:28;;;;;;;26.23;13.30;;;;;;;20.63;78.78;94622.38;5044846;28;20037;-68
2021/08/02 02:24:01;;;;;;;24.92;13.73;;;;;;;20.59;78.37;94627.44;5060221;28;20518;-68
2021/08/02 02:26:31;;;;;;;24.08;13.07;;;;;;;20.50;79.22;94625.81;5059912;28;20099;-68
2021/08/02 02:29:01;;;;;;;26.38;12.38;;;;;;;20.38;78.56;94624.47;5043503;28;20044;-69
2021/08/02 02:31:28;;;;;;;28.60;13.35;;;;;;;20.32;78.74;94630.94;5043924;28;20080;-68
2021/08/02 02:34:00;;;;;;;24.67;12.77;;;;;;;20.30;77.80;94627.03;5060206;28;20045;-68
2021/08/02 02:36:29;;;;;;;25.80;11.95;;;;;;;20.21;77.47;94630.38;5044974;28;20041;-68
2021/08/02 02:38:57;;;;;;;25.45;12.40;;;;;;;20.20;76.67;94628.03;5048909;28;20091;-68
2021/08/02 02:41:24;;;;;;;23.23;11.40;;;;;;;20.25;75.81;94625.28;5049829;28;20044;-67
2021/08/02 02:43:53;;;;;;;32.28;12.90;;;;;;;20.26;75.80;94632.13;5047044;28;20072;-68
2021/08/02 02:46:22;;;;;;;26.50;11.35;;;;;;;20.31;75.53;94634.69;5048501;28;20039;-68
2021/08/02 02:48:53;;;;;;;27.15;10.75;;;;;;;20.25;75.05;94625.28;5064328;28;20076;-67
2021/08/02 02:51:22;;;;;;;26.75;11.82;;;;;;;20.32;74.16;94625.66;5045809;28;20151;-68
2021/08/02 02:53:50;;;;;;;25.67;11.52;;;;;;;20.33;74.10;94627.22;5048306;28;20120;-68
2021/08/02 02:56:19;;;;;;;36.30;11.20;;;;;;;20.34;73.40;94623.50;5063825;28;20045;-68
2021/08/02 02:58:48;;;;;;;27.48;11.48;;;;;;;20.35;74.38;94619.78;5048715;28;20514;-68
2021/08/02 03:01:19;;;;;;;31.58;12.02;;;;;;;20.29;74.92;94620.94;5046774;28;20071;-68
2021/08/02 03:03:56;;;;;;;37.17;11.43;;;;;;;20.23;75.12;94596.47;5047619;28;20064;-68
2021/08/02 03:06:27;;;;;;;46.67;14.57;;;;;;;20.39;75.32;94625.25;5063480;28;20419;-68
2021/08/02 03:08:56;;;;;;;29.23;11.68;;;;;;;20.29;75.77;94626.25;5047099;28;20041;-68
2021/08/02 03:11:24;;;;;;;26.13;12.57;;;;;;;20.22;76.61;94620.56;5045986;28;20133;-68
2021/08/02 03:13:51;;;;;;;24.65;12.32;;;;;;;20.18;77.09;94635.47;5049208;28;20041;-68
2021/08/02 03:16:20;;;;;;;30.35;12.23;;;;;;;20.22;77.33;94631.94;5047942;28;20486;-68
2021/08/02 03:18:48;;;;;;;31.20;12.23;;;;;;;20.29;77.32;94631.53;5048289;28;20048;-67
2021/08/02 03:21:16;;;;;;;32.53;14.15;;;;;;;20.23;78.30;94628.22;5047843;28;20041;-68
2021/08/02 03:23:57;;;;;;;26.92;13.07;;;;;;;20.17;79.93;94639.22;5047063;28;20040;-68
2021/08/02 03:26:39;;;;;;;30.75;13.18;;;;;;;20.15;80.79;94636.06;5047387;28;20119;-68
2021/08/02 03:29:19;;;;;;;35.35;16.02;;;;;;;20.12;81.34;94620.81;5047651;28;20061;-68
2021/08/02 03:31:53;;;;;;;35.65;13.93;;;;;;;20.14;81.76;94623.94;5047178;28;20052;-68
2021/08/02 03:34:28;;;;;;;33.10;14.93;;;;;;;20.10;82.10;94629.03;5046661;28;20059;-68
2021/08/02 03:36:56;;;;;;;30.23;13.10;;;;;;;20.01;83.04;94634.22;5045412;28;20053;-68
2021/08/02 03:39:26;;;;;;;40.40;14.23;;;;;;;19.95;83.69;94651.25;5045876;28;20494;-68
2021/08/02 03:41:54;;;;;;;35.20;15.52;;;;;;;19.78;84.64;94656.34;5046313;28;20039;-68
2021/08/02 03:44:22;;;;;;;38.15;16.58;;;;;;;19.66;85.27;94652.31;5047238;28;20860;-68
2021/08/02 03:46:52;;;;;;;41.53;17.33;;;;;;;19.71;85.87;94648.00;5047337;28;20045;-67
2021/08/02 03:49:18;;;;;;;43.03;18.60;;;;;;;19.75;86.34;94670.13;5045719;28;20039;-68
2021/08/02 03:51:57;;;;;;;33.58;20.10;;;;;;;19.29;88.90;94680.38;5047131;28;20036;-67
2021/08/02 03:54:26;;;;;;;36.35;22.15;;;;;;;19.25;89.46;94642.44;5046092;28;20059;-68
2021/08/02 03:56:54;;;;;;;35.92;21.00;;;;;;;19.40;90.49;94659.88;5046532;28;20063;-67
2021/08/02 03:59:22;;;;;;;35.65;20.55;;;;;;;19.34;90.17;94662.88;5043187;28;20131;-68
2021/08/02 04:01:50;;;;;;;38.92;21.10;;;;;;;19.44;90.31;94671.41;5061415;28;20053;-68
2021/08/02 04:04:17;;;;;;;29.88;18.58;;;;;;;19.54;90.00;94659.91;5047548;28;20037;-67
2021/08/02 04:06:44;;;;;;;29.48;19.33;;;;;;;19.56;90.96;94657.75;5049377;28;20068;-68
2021/08/02 04:09:12;;;;;;;36.65;21.40;;;;;;;19.51;90.02;94665.00;5045393;28;20047;-67
2021/08/02 04:11:40;;;;;;;29.15;19.90;;;;;;;19.60;89.79;94657.97;5047870;28;20107;-67
2021/08/02 04:14:08;;;;;;;41.60;24.23;;;;;;;19.62;89.74;94672.44;5046870;28;20045;-68
2021/08/02 04:16:36;;;;;;;32.00;17.77;;;;;;;19.61;89.13;94665.59;5046565;28;20108;-67
2021/08/02 04:19:04;;;;;;;25.63;18.45;;;;;;;19.68;88.34;94665.22;5046384;28;20079;-67
2021/08/02 04:21:31;;;;;;;29.50;18.10;;;;;;;19.75;88.32;94670.13;5044983;28;20491;-67
2021/08/02 04:23:58;;;;;;;23.80;16.02;;;;;;;19.73;87.19;94672.25;5045289;28;20036;-67
2021/08/02 04:26:25;;;;;;;25.77;16.30;;;;;;;19.77;86.34;94670.63;5061325;28;20053;-68
2021/08/02 04:28:58;;;;;;;33.05;17.13;;;;;;;19.85;86.67;94669.94;5046224;28;20380;-68
2021/08/02 04:31:27;;;;;;;25.70;15.52;;;;;;;19.93;87.21;94663.97;5046301;28;20069;-67
2021/08/02 04:33:54;;;;;;;32.35;17.70;;;;;;;20.02;86.97;94672.81;5045162;28;20519;-67
2021/08/02 04:36:22;;;;;;;27.48;17.02;;;;;;;20.11;85.77;94669.47;5028475;28;20493;-68
2021/08/02 04:38:49;;;;;;;33.47;17.63;;;;;;;20.22;84.60;94674.25;5047567;28;20044;-67
2021/08/02 04:41:16;;;;;;;32.67;17.90;;;;;;;20.23;85.12;94675.03;5047115;28;20045;-68
2021/08/02 04:43:43;;;;;;;28.00;16.02;;;;;;;20.35;83.90;94677.97;5045490;28;20047;-67
2021/08/02 04:46:10;;;;;;;26.20;16.17;;;;;;;20.33;84.56;94658.97;5045827;28;20037;-68
2021/08/02 04:48:37;;;;;;;27.73;15.13;;;;;;;20.39;83.22;94673.63;5045925;28;20902;-67
2021/08/02 04:51:03;;;;;;;24.45;13.20;;;;;;;20.46;80.63;94667.19;5045509;28;20051;-68
2021/08/02 04:53:30;;;;;;;26.35;14.75;;;;;;;20.54;81.58;94663.81;5045533;28;20037;-68
2021/08/02 04:55:57;;;;;;;27.63;14.35;;;;;;;20.67;81.34;94663.03;5047346;28;20060;-68
2021/08/02 04:58:24;;;;;;;25.08;14.90;;;;;;;20.67;81.62;94673.63;5047624;28;20041;-68
2021/08/02 05:00:51;;;;;;;31.95;15.18;;;;;;;20.73;81.95;94667.13;5043715;28;20044;-68
2021/08/02 05:03:17;;;;;;;24.10;15.15;;;;;;;20.84;81.92;94666.91;5044719;28;20043;-68
2021/08/02 05:05:45;;;;;;;29.83;15.27;;;;;;;20.98;81.78;94672.94;5045697;28;20065;-68
2021/08/02 05:08:12;;;;;;;22.73;12.90;;;;;;;21.00;80.39;94654.88;5043862;28;20132;-67
2021/08/02 05:10:38;;;;;;;28.50;13.27;;;;;;;21.14;77.54;94668.84;5045416;28;20045;-67
2021/08/02 05:13:05;;;;;;;27.27;12.93;;;;;;;21.27;77.21;94663.78;5045496;28;20037;-67
2021/08/02 05:15:34;;;;;;;24.25;13.07;;;;;;;21.39;78.61;94658.69;5044989;28;20051;-67
2021/08/02 05:18:00;;;;;;;26.40;13.05;;;;;;;21.47;77.19;94663.28;5045844;28;20037;-68
2021/08/02 05:20:28;;;;;;;23.27;12.20;;;;;;;21.56;77.25;94664.13;5045297;28;20037;-67
2021/08/02 05:22:54;;;;;;;23.13;12.85;;;;;;;21.70;75.94;94665.91;5045133;28;20045;-68
2021/08/02 05:25:21;;;;;;;28.50;14.65;;;;;;;21.79;75.14;94664.09;5045557;28;20048;-67
2021/08/02 05:27:52;;;;;;;26.98;12.75;;;;;;;21.93;75.93;94663.97;5045350;28;20128;-67
2021/08/02 05:30:20;;;;;;;30.35;13.43;;;;;;;22.09;74.92;94672.28;5045639;28;20816;-68
2021/08/02 05:32:47;;;;;;;37.05;12.38;;;;;;;22.21;75.52;94685.75;5045196;28;20568;-67
2021/08/02 05:35:14;;;;;;;32.70;13.50;;;;;;;22.37;75.50;94672.09;5045048;28;20439;-67
2021/08/02 05:37:41;;;;;;;24.50;11.85;;;;;;;22.45;72.72;94685.34;5044306;28;20033;-67
2021/08/02 05:40:09;;;;;;;28.50;12.40;;;;;;;22.64;73.35;94682.41;5043992;28;20048;-68
2021/08/02 05:42:36;;;;;;;25.75;12.10;;;;;;;22.79;72.09;94693.69;5044241;28;20037;-68
2021/08/02 05:45:05;;;;;;;27.50;14.45;;;;;;;22.96;75.50;94693.69;5044712;28;20045;-68
2021/08/02 05:47:32;;;;;;;39.58;13.50;;;;;;;23.11;74.30;94694.34;5043954;28;20045;-69
2021/08/02 05:49:59;;;;;;;23.63;13.70;;;;;;;23.17;71.22;94695.72;5044984;28;20529;-68
2021/08/02 05:52:28;;;;;;;27.50;13.45;;;;;;;23.32;70.79;94689.94;5044975;28;20047;-68
2021/08/02 05:54:55;;;;;;;24.55;12.30;;;;;;;23.44;70.87;94692.75;5044109;28;20057;-68
2021/08/02 05:57:22;;;;;;;25.73;11.65;;;;;;;23.55;71.12;94687.06;5044804;28;20598;-68
2021/08/02 05:59:50;;;;;;;25.05;11.93;;;;;;;23.76;69.30;94693.28;5043278;28;20033;-69
2021/08/02 06:02:17;;;;;;;30.05;13.95;;;;;;;23.92;70.15;94695.44;5042981;28;20041;-68
2021/08/02 06:04:46;;;;;;;27.38;12.45;;;;;;;24.04;69.54;94692.91;5043491;28;20647;-68
2021/08/02 06:07:13;;;;;;;34.85;13.10;;;;;;;24.14;70.28;94692.53;5045215;28;20047;-68
2021/08/02 06:09:40;;;;;;;27.05;12.05;;;;;;;24.28;67.08;94696.88;5045084;28;20037;-68
2021/08/02 06:12:07;;;;;;;32.40;12.70;;;;;;;24.40;66.12;94710.28;5047168;28;20041;-68
2021/08/02 06:14:34;;;;;;;23.83;11.73;;;;;;;24.46;66.30;94695.66;5047911;28;20055;-68
2021/08/02 06:17:01;;;;;;;29.73;12.73;;;;;;;24.68;64.32;94707.16;5048759;28;20044;-68
2021/08/02 06:19:28;;;;;;;33.80;11.57;;;;;;;24.86;63.23;94710.47;5048610;28;20040;-69
2021/08/02 06:21:54;;;;;;;28.48;11.80;;;;;;;24.97;63.90;94712.44;5048646;28;20052;-68
2021/08/02 06:24:21;;;;;;;33.30;11.98;;;;;;;25.13;63.53;94714.50;5048144;28;20575;-69
2021/08/02 06:26:48;;;;;;;23.90;10.90;;;;;;;25.07;63.67;94700.59;5049577;28;20048;-68
2021/08/02 06:29:15;;;;;;;25.02;10.95;;;;;;;25.22;63.23;94717.84;5049015;28;20044;-69
2021/08/02 06:31:41;;;;;;;23.17;13.25;;;;;;;25.19;63.73;94724.63;5050006;28;20045;-68
2021/08/02 06:34:09;;;;;;;28.17;12.07;;;;;;;25.21;60.93;94721.66;5048885;28;20041;-68
2021/08/02 06:36:36;;;;;;;33.22;12.80;;;;;;;25.18;60.63;94732.94;5048199;28;20534;-68
2021/08/02 06:39:03;;;;;;;27.63;12.10;;;;;;;25.26;62.01;94734.78;5047742;28;20041;-68
2021/08/02 06:41:30;;;;;;;29.58;13.70;;;;;;;25.23;61.50;94723.97;5047919;28;20404;-68
2021/08/02 06:43:57;;;;;;;26.92;12.55;;;;;;;25.33;61.62;94713.72;5048064;28;20156;-68
2021/08/02 06:46:24;;;;;;;28.75;12.73;;;;;;;25.45;61.33;94730.88;5047966;28;20041;-68
2021/08/02 06:48:51;;;;;;;37.05;13.75;;;;;;;25.59;61.81;94726.03;5063686;28;20041;-68
2021/08/02 06:51:19;;;;;;;28.60;11.27;;;;;;;25.66;59.27;94726.28;5048910;28;20041;-68
2021/08/02 06:53:46;;;;;;;34.03;11.95;;;;;;;25.76;58.51;94720.50;5063579;28;20041;-68
2021/08/02 06:56:13;;;;;;;40.03;12.65;;;;;;;25.90;57.14;94730.09;5047359;28;20822;-68
2021/08/02 06:58:39;;;;;;;28.52;11.73;;;;;;;26.07;57.29;94724.63;5049449;28;20056;-68
2021/08/02 07:01:06;;;;;;;27.08;11.30;;;;;;;26.20;57.43;94727.28;5046693;28;20041;-68
2021/08/02 07:03:33;;;;;;;28.20;10.70;;;;;;;26.35;56.20;94725.84;5048398;28;20037;-68
2021/08/02 07:06:00;;;;;;;29.15;12.10;;;;;;;26.47;57.19;94726.63;5048228;28;20614;-68
2021/08/02 07:08:27;;;;;;;32.47;11.38;;;;;;;26.63;55.94;94723.28;5048337;28;20550;-68
2021/08/02 07:10:54;;;;;;;21.63;11.52;;;;;;;26.69;56.06;94717.38;5048287;28;20087;-68
2021/08/02 07:13:21;;;;;;;29.80;12.10;;;;;;;26.89;57.49;94726.38;5048091;28;20516;-69
2021/08/02 07:15:48;;;;;;;26.30;11.93;;;;;;;27.00;56.54;94720.56;5048155;28;20036;-68
2021/08/02 07:18:15;;;;;;;29.02;10.52;;;;;;;27.13;55.41;94711.38;5048351;28;20045;-69
2021/08/02 07:20:41;;;;;;;27.10;11.50;;;;;;;27.31;53.97;94727.16;5048267;28;20051;-69
2021/08/02 07:23:08;;;;;;;25.13;11.73;;;;;;;27.45;53.00;94730.22;5047594;28;20044;-69
2021/08/02 07:25:35;;;;;;;28.65;11.15;;;;;;;27.48;53.13;94718.06;5046363;28;20053;-68
2021/08/02 07:28:02;;;;;;;31.75;12.93;;;;;;;27.64;52.19;94722.34;5063357;28;20049;-69
2021/08/02 07:30:29;;;;;;;27.27;11.57;;;;;;;27.89;51.14;94737.47;5047684;28;20033;-69
2021/08/02 07:32:56;;;;;;;31.08;11.95;;;;;;;27.97;51.72;94729.31;5047960;28;20036;-69
2021/08/02 07:35:22;;;;;;;27.88;10.70;;;;;;;28.17;51.74;94732.09;5047944;28;20399;-68
2021/08/02 07:37:49;;;;;;;24.77;9.77;;;;;;;28.37;50.94;94736.38;5048021;28;20518;-69
2021/08/02 07:40:16;;;;;;;28.70;11.00;;;;;;;28.59;51.77;94728.88;5063191;28;20045;-70
2021/08/02 07:42:43;;;;;;;39.95;10.57;;;;;;;28.82;50.17;94722.88;5047712;28;20044;-69
2021/08/02 07:45:11;;;;;;;26.58;10.27;;;;;;;29.06;47.89;94722.59;5046817;28;20476;-69
2021/08/02 07:47:38;;;;;;;26.17;10.55;;;;;;;29.22;47.86;94708.41;5046289;28;20052;-69
2021/08/02 07:50:07;;;;;;;26.48;9.70;;;;;;;29.33;48.30;94714.75;5047246;28;20045;-69
2021/08/02 07:52:34;;;;;;;30.10;10.73;;;;;;;29.51;46.81;94710.50;5046039;28;20059;-69
2021/08/02 07:55:01;;;;;;;31.77;10.68;;;;;;;29.55;46.57;94702.53;5043837;28;20053;-69
2021/08/02 07:57:31;;;;;;;28.33;10.38;;;;;;;29.81;46.77;94712.59;5046398;28;20043;-69
2021/08/02 08:00:07;;;;;;;25.88;10.43;;;;;;;30.00;49.02;94713.66;5045812;28;20056;-69
2021/08/02 08:02:38;;;;;;;32.90;10.85;;;;;;;30.21;47.18;94714.00;5045217;28;20090;-69
2021/08/02 08:05:06;;;;;;;28.65;10.30;;;;;;;30.44;43.95;94710.56;5044929;28;20053;-70
2021/08/02 08:07:43;;;;;;;34.83;10.57;;;;;;;30.66;42.96;94712.41;5049023;28;20047;-69
2021/08/02 08:10:12;;;;;;;45.10;10.38;;;;;;;30.82;43.38;94704.19;5060267;28;20037;-69
2021/08/02 08:12:39;;;;;;;21.88;8.82;;;;;;;31.03;42.89;94714.47;5046450;28;20041;-69
2021/08/02 08:15:08;;;;;;;23.27;8.18;;;;;;;31.22;37.98;94715.47;5042915;28;20053;-69
2021/08/02 08:17:35;;;;;;;26.35;9.00;;;;;;;31.50;37.93;94704.28;5061894;28;20072;-69
2021/08/02 08:20:05;;;;;;;24.13;9.38;;;;;;;31.75;38.80;94709.16;5044346;28;20055;-68
2021/08/02 08:22:32;;;;;;;30.45;7.97;;;;;;;31.97;34.46;94704.75;5046865;28;20090;-69
2021/08/02 08:24:58;;;;;;;29.83;7.72;;;;;;;32.17;37.39;94698.00;5044310;28;20055;-69
2021/08/02 08:27:25;;;;;;;25.58;8.25;;;;;;;32.44;34.93;94718.59;5042094;28;20041;-69
2021/08/02 08:29:52;;;;;;;33.47;7.70;;;;;;;32.66;31.72;94717.63;5043576;28;20434;-69
2021/08/02 08:32:19;;;;;;;25.30;8.27;;;;;;;32.82;32.81;94708.47;5041214;28;20049;-69
2021/08/02 08:34:46;;;;;;;37.67;7.88;;;;;;;32.90;34.10;94702.75;5043413;28;20060;-69
2021/08/02 08:37:13;;;;;;;39.42;9.57;;;;;;;33.12;34.18;94703.66;5040497;28;20122;-69
2021/08/02 08:39:40;;;;;;;26.55;9.02;;;;;;;33.36;34.16;94693.31;5044383;28;20057;-69
2021/08/02 08:42:07;;;;;;;26.90;7.30;;;;;;;33.59;30.45;94701.09;5043730;28;20053;-69
2021/08/02 08:44:35;;;;;;;32.92;8.77;;;;;;;33.77;30.27;94698.47;5044591;28;20060;-69
2021/08/02 08:47:02;;;;;;;20.02;7.03;;;;;;;33.97;29.41;94693.47;5041108;28;20037;-69
2021/08/02 08:49:29;;;;;;;21.15;7.70;;;;;;;34.18;28.31;94694.66;5044942;28;20053;-69
2021/08/02 08:51:56;;;;;;;34.35;8.13;;;;;;;34.41;28.46;94689.63;5045073;28;20037;-69
2021/08/02 08:54:23;;;;;;;26.35;7.63;;;;;;;34.59;27.18;94691.53;5044834;28;20052;-69
2021/08/02 08:56:52;;;;;;;19.67;7.38;;;;;;;34.85;28.18;94680.28;5045542;28;20041;-69
2021/08/02 08:59:19;;;;;;;28.20;7.88;;;;;;;35.11;27.90;94697.19;5044611;28;20553;-69
2021/08/02 09:01:46;;;;;;;28.52;7.30;;;;;;;35.20;27.28;94694.88;5043684;28;20047;-69
2021/08/02 09:04:26;;;;;;;22.35;7.75;;;;;;;35.21;27.00;94688.31;5042760;28;20712;-68
2021/08/02 09:06:56;;;;;;;25.92;7.85;;;;;;;35.38;27.31;94683.19;5045053;28;20072;-69
2021/08/02 09:09:28;;;;;;;33.85;7.00;;;;;;;35.37;26.79;94679.72;5045276;28;20071;-69
2021/08/02 09:12:22;;;;;;;30.20;8.27;;;;;;;35.65;28.91;94675.28;5045166;28;20040;-68
2021/08/02 09:14:54;;;;;;;27.70;8.57;;;;;;;35.81;26.48;94672.13;5047028;28;20064;-69
2021/08/02 09:17:33;;;;;;;27.42;8.00;;;;;;;36.02;25.66;94675.88;5045013;28;20080;-69
2021/08/02 09:20:22;;;;;;;25.65;7.20;;;;;;;36.26;24.11;94679.56;5044928;28;20072;-69
2021/08/02 09:22:51;;;;;;;31.88;6.93;;;;;;;35.72;24.77;94669.09;5045528;28;20526;-68
2021/08/02 09:25:20;;;;;;;34.40;7.93;;;;;;;35.50;27.69;94669.19;5043432;28;20056;-69
2021/08/02 09:27:49;;;;;;;30.90;7.25;;;;;;;35.64;23.74;94668.34;5044969;28;20048;-69
2021/08/02 09:30:17;;;;;;;23.88;7.50;;;;;;;35.98;25.35;94660.41;5044260;28;20060;-69
2021/08/02 09:33:03;;;;;;;27.90;6.40;;;;;;;36.39;26.07;94666.28;5045101;28;20041;-68
2021/08/02 09:35:33;;;;;;;25.45;6.90;;;;;;;36.82;25.38;94660.44;5043545;28;20057;-70
2021/08/02 09:38:03;;;;;;;34.47;6.55;;;;;;;37.12;23.94;94652.31;5045817;28;20045;-69
2021/08/02 09:40:57;;;;;;;25.50;7.25;;;;;;;37.46;23.39;94654.22;5045640;28;20073;-69
2021/08/02 09:43:30;;;;;;;28.45;5.75;;;;;;;37.71;22.53;94658.56;5035322;28;20419;-69
2021/08/02 09:46:05;;;;;;;22.23;6.75;;;;;;;38.00;21.50;94658.13;5045949;28;20064;-68
2021/08/02 09:48:41;;;;;;;27.85;8.15;;;;;;;38.17;21.83;94651.63;5043899;28;20047;-68
2021/08/02 09:51:12;;;;;;;26.60;6.75;;;;;;;38.47;22.07;94647.25;5045479;28;20426;-68
2021/08/02 09:53:51;;;;;;;30.58;6.90;;;;;;;38.67;20.32;94654.69;5046601;28;20052;-68
2021/08/02 09:56:20;;;;;;;25.70;6.65;;;;;;;38.82;21.88;94647.78;5046195;28;20132;-67
2021/08/02 09:59:09;;;;;;;27.25;6.93;;;;;;;38.82;20.46;94647.78;5045395;28;20041;-68
2021/08/02 10:01:36;;;;;;;33.95;7.57;;;;;;;38.94;18.72;94641.72;5043882;28;20033;-68
2021/08/02 10:04:05;;;;;;;24.75;6.95;;;;;;;39.33;18.67;94645.59;5044772;28;20033;-67
2021/08/02 10:06:32;;;;;;;37.83;6.38;;;;;;;39.54;18.96;94643.63;5044145;28;20095;-68
2021/08/02 10:09:00;;;;;;;28.98;6.63;;;;;;;39.52;21.12;94640.56;5046151;28;20423;-68
2021/08/02 10:11:27;;;;;;;28.55;7.38;;;;;;;39.72;21.45;94643.97;5041897;28;20041;-67
2021/08/02 10:13:54;;;;;;;29.92;8.95;;;;;;;39.94;18.88;94648.94;5042883;28;20499;-67
2021/08/02 10:16:26;;;;;;;28.70;6.50;;;;;;;40.16;17.27;94648.41;5044097;28;20120;-68
2021/08/02 10:19:05;;;;;;;28.30;6.78;;;;;;;40.24;17.57;94645.09;5044427;28;20048;-68
2021/08/02 10:21:47;;;;;;;26.95;7.35;;;;;;;40.40;17.94;94647.06;5043474;28;20515;-68
2021/08/02 10:24:16;;;;;;;29.42;6.95;;;;;;;40.27;18.57;94651.66;5044436;28;20048;-68
2021/08/02 10:26:58;;;;;;;27.17;6.70;;;;;;;40.43;19.39;94635.28;5042402;28;20041;-68
2021/08/02 10:29:37;;;;;;;24.63;7.43;;;;;;;40.46;18.60;94639.91;5043255;28;20444;-68
2021/08/02 10:32:05;;;;;;;29.65;6.18;;;;;;;40.43;18.54;94624.38;5043632;28;20045;-68
2021/08/02 10:34:32;;;;;;;25.13;6.43;;;;;;;40.63;18.11;94624.25;5042382;28;20077;-68
2021/08/02 10:37:05;;;;;;;25.30;5.68;;;;;;;40.95;18.00;94630.03;5041369;28;20056;-68
2021/08/02 10:39:35;;;;;;;35.05;7.05;;;;;;;40.83;16.48;94621.38;5044126;28;20127;-68
2021/08/02 10:42:12;;;;;;;29.77;7.78;;;;;;;41.00;15.39;94621.28;5043256;28;20530;-67
2021/08/02 10:44:59;;;;;;;19.73;6.50;;;;;;;41.29;15.89;94625.94;5041382;28;20068;-67
2021/08/02 10:47:40;;;;;;;28.55;5.97;;;;;;;41.26;13.95;94601.03;5044024;28;20045;-67
2021/08/02 10:50:22;;;;;;;20.98;5.10;;;;;;;40.62;15.19;94609.03;5043780;28;20041;-67
2021/08/02 10:52:49;;;;;;;26.35;5.55;;;;;;;40.57;15.04;94611.53;5043356;28;20045;-68
2021/08/02 10:55:16;;;;;;;29.33;5.07;;;;;;;40.47;15.91;94619.59;5044046;28;20411;-67
2021/08/02 10:57:54;;;;;;;23.85;6.25;;;;;;;40.10;16.35;94624.41;5042928;28;20056;-67
2021/08/02 11:00:21;;;;;;;28.85;7.45;;;;;;;39.49;17.13;94625.06;5046365;28;20454;-67
2021/08/02 11:02:53;;;;;;;24.15;5.93;;;;;;;39.73;19.12;94618.25;5046779;28;20648;-68
2021/08/02 11:05:22;;;;;;;29.85;5.90;;;;;;;40.04;17.18;94620.66;5047763;28;20052;-68
2021/08/02 11:07:49;;;;;;;28.23;6.55;;;;;;;40.43;16.51;94623.63;5047265;28;20041;-67
2021/08/02 11:10:17;;;;;;;31.65;7.38;;;;;;;40.58;19.13;94624.00;5046995;28;20037;-68
2021/08/02 11:12:45;;;;;;;25.88;6.45;;;;;;;40.98;17.91;94618.25;5048097;28;20127;-68
2021/08/02 11:15:12;;;;;;;23.77;6.85;;;;;;;41.42;15.80;94624.00;5049230;28;20052;-68
2021/08/02 11:17:51;;;;;;;38.80;5.90;;;;;;;41.79;17.31;94608.03;5046834;28;20060;-68
2021/08/02 11:20:18;;;;;;;18.98;5.60;;;;;;;42.29;16.57;94617.34;5048232;28;20052;-68
2021/08/02 11:22:53;;;;;;;29.13;5.43;;;;;;;42.57;18.70;94609.38;5046028;28;20048;-68
2021/08/02 11:25:30;;;;;;;30.88;6.43;;;;;;;42.67;16.08;94619.19;5048274;28;20052;-67
2021/08/02 11:27:59;;;;;;;24.48;5.82;;;;;;;42.92;16.02;94606.59;5050546;28;20041;-67
2021/08/02 11:30:28;;;;;;;35.47;6.47;;;;;;;42.74;18.53;94613.47;5051722;28;20107;-67
2021/08/02 11:32:56;;;;;;;25.83;4.93;;;;;;;42.66;15.08;94617.69;5048049;28;20419;-68
2021/08/02 11:35:34;;;;;;;22.15;5.15;;;;;;;42.26;16.29;94618.22;5053430;28;20041;-68